createdAt,value
2022-11-04T00:00:28.552Z,4.80
2022-11-04T00:03:00.029Z,4.80
2022-11-04T00:05:27.591Z,5.20
2022-11-04T00:08:11.028Z,5.90
2022-11-04T00:10:54.602Z,7.40
2022-11-04T00:13:22.058Z,5.10
2022-11-04T00:16:05.636Z,5.90
2022-11-04T00:18:35.835Z,4.50
2022-11-04T00:21:26.417Z,5.80
2022-11-04T00:24:09.928Z,5.40
2022-11-04T00:26:53.667Z,4.90
2022-11-04T00:29:21.149Z,5.20
2022-11-04T00:32:04.649Z,5.70
2022-11-04T00:34:32.111Z,5.30
2022-11-04T00:37:00.325Z,5.60
2022-11-04T00:39:27.806Z,4.80
2022-11-04T00:41:55.237Z,4.60
2022-11-04T00:44:22.738Z,5.10
2022-11-04T00:46:50.235Z,6.60
2022-11-04T00:49:17.714Z,5.10
2022-11-04T00:51:45.797Z,5.50
2022-11-04T00:54:13.356Z,5.60
2022-11-04T00:56:41.968Z,5.40
2022-11-04T00:59:13.528Z,5.30
2022-11-04T01:01:42.457Z,5.80
2022-11-04T01:04:10.621Z,5.10
2022-11-04T01:06:38.469Z,5.40
2022-11-04T01:09:08.423Z,5.30
2022-11-04T01:11:35.886Z,4.90
2022-11-04T01:14:03.468Z,4.50
2022-11-04T01:16:31.103Z,4.90
2022-11-04T01:18:58.801Z,5.10
2022-11-04T01:21:26.380Z,6.10
2022-11-04T01:23:53.980Z,4.80
2022-11-04T01:26:24.621Z,4.90
2022-11-04T01:28:54.956Z,5.50
2022-11-04T01:31:24.877Z,5.80
2022-11-04T01:33:53.769Z,5.10
2022-11-04T01:36:22.542Z,4.80
2022-11-04T01:38:50.892Z,4.50
2022-11-04T01:41:22.884Z,5.50
2022-11-04T01:43:55.852Z,5.00
2022-11-04T01:46:46.573Z,4.90
2022-11-04T01:49:43.343Z,4.70
2022-11-04T01:52:19.255Z,5.00
2022-11-04T01:54:50.043Z,5.30
2022-11-04T01:57:23.470Z,4.70
2022-11-04T01:59:51.068Z,4.60
2022-11-04T02:02:18.746Z,4.90
2022-11-04T02:04:46.963Z,5.30
2022-11-04T02:07:14.549Z,5.60
2022-11-04T02:09:43.751Z,5.50
2022-11-04T02:12:27.272Z,4.80
2022-11-04T02:14:55.678Z,5.30
2022-11-04T02:17:58.019Z,5.20
2022-11-04T02:20:41.153Z,4.70
2022-11-04T02:23:36.531Z,4.90
2022-11-04T02:26:36.558Z,4.70
2022-11-04T02:29:31.916Z,4.40
2022-11-04T02:32:13.472Z,4.60
2022-11-04T02:34:57.969Z,4.40
2022-11-04T02:40:22.337Z,4.60
2022-11-04T02:43:21.783Z,4.50
2022-11-04T02:45:58.207Z,4.60
2022-11-04T02:48:39.430Z,4.60
2022-11-04T02:51:16.149Z,4.70
2022-11-04T02:53:52.470Z,4.70
2022-11-04T02:56:22.713Z,4.20
2022-11-04T02:58:57.820Z,4.70
2022-11-04T03:01:33.143Z,4.20
2022-11-04T03:04:08.941Z,5.40
2022-11-04T03:06:38.696Z,4.60
2022-11-04T03:09:08.028Z,5.00
2022-11-04T03:11:37.725Z,5.60
2022-11-04T03:14:24.680Z,5.90
2022-11-04T03:16:57.966Z,5.50
2022-11-04T03:19:45.585Z,6.50
2022-11-04T03:22:19.737Z,5.50
2022-11-04T03:24:49.203Z,5.30
2022-11-04T03:27:47.996Z,5.40
2022-11-04T03:30:22.197Z,8.50
2022-11-04T03:33:10.875Z,4.00
2022-11-04T03:35:38.576Z,4.50
2022-11-04T03:38:06.198Z,4.30
2022-11-04T03:40:34.867Z,4.60
2022-11-04T03:43:11.131Z,4.60
2022-11-04T03:45:41.758Z,5.00
2022-11-04T03:48:09.980Z,4.30
2022-11-04T03:50:48.627Z,4.50
2022-11-04T03:53:23.008Z,4.80
2022-11-04T03:56:12.573Z,5.20
2022-11-04T03:59:08.163Z,4.80
2022-11-04T04:01:54.732Z,5.50
2022-11-04T04:04:41.269Z,5.00
2022-11-04T04:07:19.654Z,4.90
2022-11-04T04:09:57.551Z,4.90
2022-11-04T04:12:28.014Z,5.00
2022-11-04T04:15:03.217Z,4.70
2022-11-04T04:17:43.074Z,5.40
2022-11-04T04:20:29.858Z,5.20
2022-11-04T04:23:03.769Z,4.90
2022-11-04T04:25:48.064Z,5.00
2022-11-04T04:28:18.970Z,5.30
2022-11-04T04:30:46.749Z,5.00
2022-11-04T04:33:18.895Z,5.30
2022-11-04T04:35:56.173Z,5.00
2022-11-04T04:38:40.985Z,4.80
2022-11-04T04:41:43.240Z,5.10
2022-11-04T04:44:45.098Z,5.00
2022-11-04T04:47:21.014Z,4.90
2022-11-04T04:49:53.606Z,4.80
2022-11-04T04:52:23.270Z,5.00
2022-11-04T04:54:50.753Z,4.50
2022-11-04T04:57:18.213Z,4.80
2022-11-04T04:59:45.769Z,5.70
2022-11-04T05:02:13.582Z,4.70
2022-11-04T05:04:41.227Z,5.30
2022-11-04T05:07:10.014Z,4.80
2022-11-04T05:09:37.520Z,5.10
2022-11-04T05:12:05.429Z,5.50
2022-11-04T05:14:33.170Z,4.40
2022-11-04T05:17:00.636Z,4.80
2022-11-04T05:19:28.241Z,6.00
2022-11-04T05:21:55.737Z,4.70
2022-11-04T05:24:23.228Z,5.20
2022-11-04T05:26:50.748Z,4.30
2022-11-04T05:29:18.376Z,4.50
2022-11-04T05:31:45.871Z,5.70
2022-11-04T05:34:14.156Z,4.60
2022-11-04T05:36:41.914Z,4.30
2022-11-04T05:39:13.183Z,4.40
2022-11-04T05:41:41.070Z,5.10
2022-11-04T05:44:09.652Z,4.90
2022-11-04T05:46:37.853Z,4.70
2022-11-04T05:49:05.579Z,5.10
2022-11-04T05:51:33.342Z,5.50
2022-11-04T05:54:01.711Z,5.90
2022-11-04T05:56:29.335Z,7.30
2022-11-04T05:58:56.988Z,5.50
2022-11-04T06:01:27.494Z,4.90
2022-11-04T06:03:56.070Z,4.50
2022-11-04T06:06:25.317Z,4.50
2022-11-04T06:08:53.729Z,5.40
2022-11-04T06:11:23.322Z,5.20
2022-11-04T06:13:51.194Z,6.20
2022-11-04T06:16:18.774Z,6.00
2022-11-04T06:18:46.253Z,6.70
2022-11-04T06:21:13.680Z,7.60
2022-11-04T06:23:42.839Z,4.30
2022-11-04T06:26:11.623Z,5.30
2022-11-04T06:28:39.580Z,5.10
2022-11-04T06:31:10.118Z,7.90
2022-11-04T06:33:37.644Z,11.20
2022-11-04T06:36:07.577Z,5.30
2022-11-04T06:38:37.604Z,5.50
2022-11-04T06:41:12.153Z,5.10
2022-11-04T06:43:39.931Z,6.80
2022-11-04T06:46:25.059Z,5.30
2022-11-04T06:48:52.820Z,7.50
2022-11-04T06:51:21.699Z,5.80
2022-11-04T06:53:49.305Z,5.60
2022-11-04T06:56:16.853Z,6.00
2022-11-04T06:58:48.092Z,5.40
2022-11-04T07:01:21.576Z,7.30
2022-11-04T07:03:54.896Z,6.80
2022-11-04T07:06:22.962Z,5.60
2022-11-04T07:08:53.127Z,6.20
2022-11-04T07:11:25.127Z,7.10
2022-11-04T07:13:52.663Z,10.10
2022-11-04T07:16:20.170Z,10.20
2022-11-04T07:18:49.322Z,7.60
2022-11-04T07:21:16.856Z,6.50
2022-11-04T07:23:44.333Z,5.60
2022-11-04T07:26:12.354Z,6.20
2022-11-04T07:28:40.175Z,6.40
2022-11-04T07:31:11.653Z,5.80
2022-11-04T07:33:39.881Z,12.50
2022-11-04T07:36:11.463Z,5.80
2022-11-04T07:38:39.238Z,5.70
2022-11-04T07:41:09.087Z,8.30
2022-11-04T07:43:36.537Z,13.30
2022-11-04T07:46:07.841Z,6.60
2022-11-04T07:48:36.718Z,6.10
2022-11-04T07:51:06.324Z,5.80
2022-11-04T07:53:34.290Z,5.20
2022-11-04T07:56:08.068Z,5.80
2022-11-04T07:58:35.607Z,7.40
2022-11-04T08:01:21.186Z,5.10
2022-11-04T08:03:52.945Z,5.00
2022-11-04T08:06:21.348Z,5.90
2022-11-04T08:08:48.892Z,4.70
2022-11-04T08:11:19.798Z,5.40
2022-11-04T08:13:47.709Z,5.20
2022-11-04T08:16:17.728Z,4.70
2022-11-04T08:18:45.988Z,5.30
2022-11-04T08:21:14.074Z,4.80
2022-11-04T08:23:41.819Z,6.70
2022-11-04T08:26:11.449Z,5.70
2022-11-04T08:28:39.446Z,6.50
2022-11-04T08:31:16.520Z,5.20
2022-11-04T08:33:44.849Z,6.10
2022-11-04T08:36:21.979Z,5.20
2022-11-04T08:38:49.964Z,5.20
2022-11-04T08:41:21.266Z,5.30
2022-11-04T08:43:49.514Z,5.40
2022-11-04T08:46:18.931Z,5.90
2022-11-04T08:48:46.674Z,5.40
2022-11-04T08:51:18.394Z,6.20
2022-11-04T08:53:46.024Z,6.00
2022-11-04T08:56:25.815Z,7.80
2022-11-04T08:58:55.011Z,5.90
2022-11-04T09:01:23.036Z,10.00
2022-11-04T09:04:00.985Z,12.10
2022-11-04T09:06:36.106Z,7.20
2022-11-04T09:09:08.815Z,17.60
2022-11-04T09:11:42.255Z,6.90
2022-11-04T09:14:12.825Z,6.30
2022-11-04T09:16:41.482Z,5.60
2022-11-04T09:19:26.433Z,5.80
2022-11-04T09:21:54.496Z,5.40
2022-11-04T09:24:22.143Z,5.90
2022-11-04T09:26:49.809Z,5.60
2022-11-04T09:29:17.353Z,6.20
2022-11-04T09:31:44.943Z,5.50
2022-11-04T09:34:12.483Z,6.70
2022-11-04T09:36:44.911Z,6.60
2022-11-04T09:39:15.488Z,7.90
2022-11-04T09:42:20.320Z,8.10
2022-11-04T09:45:20.241Z,12.40
2022-11-04T09:47:44.216Z,7.50
2022-11-04T09:50:23.566Z,6.10
2022-11-04T09:53:15.276Z,6.20
2022-11-04T09:56:01.614Z,7.90
2022-11-04T09:58:37.502Z,5.80
2022-11-04T10:01:37.480Z,5.20
2022-11-04T10:04:37.327Z,6.50
2022-11-04T10:07:36.857Z,7.40
2022-11-04T10:10:36.364Z,7.60
2022-11-04T10:13:42.082Z,6.20
2022-11-04T10:16:41.716Z,5.80
2022-11-04T10:19:18.104Z,5.80
2022-11-04T10:22:04.920Z,6.40
2022-11-04T10:25:00.382Z,6.00
2022-11-04T10:27:35.454Z,6.30
2022-11-04T10:30:19.649Z,6.00
2022-11-04T10:33:09.739Z,6.20
2022-11-04T10:35:57.524Z,5.90
2022-11-04T10:38:33.806Z,7.00
2022-11-04T10:41:07.093Z,6.90
2022-11-04T10:43:39.022Z,7.20
2022-11-04T10:46:38.788Z,6.70
2022-11-04T10:49:36.688Z,21.10
2022-11-04T10:52:06.456Z,10.40
2022-11-04T10:54:43.937Z,8.80
2022-11-04T10:57:14.309Z,5.80
2022-11-04T10:59:55.489Z,6.20
2022-11-04T11:02:39.106Z,7.80
2022-11-04T11:05:24.171Z,7.90
2022-11-04T11:07:54.894Z,7.30
2022-11-04T11:10:28.613Z,7.20
2022-11-04T11:13:07.801Z,9.60
2022-11-04T11:15:38.216Z,13.00
2022-11-04T11:18:06.002Z,7.80
2022-11-04T11:20:37.757Z,9.20
2022-11-04T11:23:09.873Z,8.30
2022-11-04T11:25:50.787Z,7.80
2022-11-04T11:28:25.897Z,6.70
2022-11-04T11:30:59.605Z,7.00
2022-11-04T11:33:27.893Z,6.50
2022-11-04T11:36:19.275Z,7.60
2022-11-04T11:39:01.409Z,4.10
2022-11-04T11:41:33.792Z,8.10
2022-11-04T11:44:18.185Z,8.00
2022-11-04T11:46:58.468Z,7.00
2022-11-04T11:49:34.034Z,8.20
2022-11-04T11:52:27.417Z,9.70
2022-11-04T11:55:03.440Z,6.50
2022-11-04T12:00:52.044Z,7.40
2022-11-04T12:09:34.769Z,6.70
2022-11-04T12:12:08.993Z,7.00
2022-11-04T12:15:07.405Z,6.40
2022-11-04T12:17:38.182Z,5.90
2022-11-04T12:20:15.639Z,6.10
2022-11-04T12:23:09.423Z,6.90
2022-11-04T12:25:56.703Z,6.10
2022-11-04T12:29:10.360Z,6.60
2022-11-04T12:31:51.136Z,6.60
2022-11-04T12:34:25.066Z,6.10
2022-11-04T12:37:15.603Z,5.60
2022-11-04T12:40:02.394Z,5.90
2022-11-04T12:42:33.441Z,6.10
2022-11-04T12:45:21.258Z,6.10
2022-11-04T12:47:49.460Z,6.40
2022-11-04T12:50:22.831Z,6.20
2022-11-04T12:53:32.787Z,5.70
2022-11-04T12:56:10.998Z,5.80
2022-11-04T12:58:51.645Z,6.50
2022-11-04T13:01:31.476Z,6.30
2022-11-04T13:04:13.963Z,5.90
2022-11-04T13:06:57.593Z,5.70
2022-11-04T13:10:07.562Z,5.80
2022-11-04T13:12:43.625Z,6.70
2022-11-04T13:15:28.886Z,6.00
2022-11-04T13:18:03.919Z,6.00
2022-11-04T13:20:40.248Z,6.30
2022-11-04T13:23:18.776Z,6.20
2022-11-04T13:25:48.181Z,6.90
2022-11-04T13:28:19.660Z,5.70
2022-11-04T13:30:50.127Z,5.80
2022-11-04T13:33:53.835Z,5.70
2022-11-04T13:36:41.265Z,5.90
2022-11-04T13:39:26.955Z,5.80
2022-11-04T13:42:26.495Z,5.80
2022-11-04T13:44:57.895Z,5.90
2022-11-04T13:47:36.382Z,6.00
2022-11-04T13:50:04.691Z,6.20
2022-11-04T13:52:34.310Z,5.20
2022-11-04T13:55:06.006Z,6.00
2022-11-04T13:57:50.884Z,6.60
2022-11-04T14:00:22.680Z,7.00
2022-11-04T14:02:51.142Z,6.40
2022-11-04T14:05:41.950Z,6.50
2022-11-04T14:08:15.788Z,6.40
2022-11-04T14:10:49.147Z,6.40
2022-11-04T14:13:33.480Z,6.70
2022-11-04T14:16:17.633Z,5.90
2022-11-04T14:18:48.407Z,5.80
2022-11-04T14:21:25.321Z,6.70
2022-11-04T14:23:58.878Z,6.30
2022-11-04T14:26:43.393Z,6.60
2022-11-04T14:29:22.283Z,6.20
2022-11-04T14:31:52.920Z,8.90
2022-11-04T14:34:30.070Z,18.30
2022-11-04T14:37:04.130Z,8.50
2022-11-04T14:39:53.830Z,6.70
2022-11-04T14:42:57.260Z,6.60
2022-11-04T14:45:29.144Z,7.60
2022-11-04T14:48:13.225Z,7.30
2022-11-04T14:50:47.726Z,7.50
2022-11-04T14:53:41.695Z,13.10
2022-11-04T14:56:24.219Z,7.40
2022-11-04T14:58:57.371Z,6.90
2022-11-04T15:01:34.326Z,7.60
2022-11-04T15:04:17.776Z,7.10
2022-11-04T15:06:55.660Z,7.40
2022-11-04T15:09:35.269Z,7.30
2022-11-04T15:12:24.773Z,7.60
2022-11-04T15:14:52.374Z,6.10
2022-11-04T15:17:22.172Z,6.50
2022-11-04T15:19:56.124Z,6.80
2022-11-04T15:22:24.399Z,6.00
2022-11-04T15:24:52.952Z,5.20
2022-11-04T15:27:28.174Z,6.00
2022-11-04T15:30:01.080Z,5.50
2022-11-04T15:32:28.950Z,6.10
2022-11-04T15:34:57.418Z,5.20
2022-11-04T15:37:28.853Z,16.10
2022-11-04T15:39:58.081Z,126.50
2022-11-04T15:42:45.206Z,657.50
2022-11-04T15:45:35.051Z,595.40
2022-11-04T15:48:23.287Z,271.20
2022-11-04T15:51:00.647Z,51.20
2022-11-04T15:53:28.339Z,45.40
2022-11-04T15:55:56.179Z,10.80
2022-11-04T15:58:25.631Z,76.10
2022-11-04T16:00:55.442Z,90.80
2022-11-04T16:03:24.471Z,38.90
2022-11-04T16:06:09.016Z,8.20
2022-11-04T16:08:36.592Z,40.90
2022-11-04T16:11:30.912Z,44.30
2022-11-04T16:14:26.890Z,27.60
2022-11-04T16:16:54.477Z,13.60
2022-11-04T16:19:25.510Z,28.90
2022-11-04T16:22:03.153Z,15.40
2022-11-04T16:24:33.382Z,11.60
2022-11-04T16:27:01.187Z,9.00
2022-11-04T16:29:34.823Z,20.60
2022-11-04T16:32:19.801Z,11.40
2022-11-04T16:34:49.745Z,8.50
2022-11-04T16:37:17.904Z,7.70
2022-11-04T16:39:45.975Z,77.90
2022-11-04T16:42:15.329Z,30.60
2022-11-04T16:44:48.245Z,76.00
2022-11-04T16:47:16.931Z,11.40
2022-11-04T16:49:44.879Z,12.40
2022-11-04T16:52:18.314Z,12.10
2022-11-04T16:54:48.090Z,7.50
2022-11-04T16:57:16.514Z,12.60
2022-11-04T16:59:43.987Z,110.10
2022-11-04T17:02:37.723Z,202.60
2022-11-04T17:05:05.536Z,58.90
2022-11-04T17:07:51.635Z,15.40
2022-11-04T17:10:25.907Z,18.60
2022-11-04T17:12:53.824Z,21.20
2022-11-04T17:15:21.347Z,9.90
2022-11-04T17:17:48.811Z,7.40
2022-11-04T17:20:18.095Z,8.80
2022-11-04T17:22:47.535Z,7.40
2022-11-04T17:25:23.952Z,6.00
2022-11-04T17:27:51.506Z,6.60
2022-11-04T17:30:21.852Z,5.70
2022-11-04T17:32:50.370Z,5.80
2022-11-04T17:35:18.131Z,8.10
2022-11-04T17:37:46.847Z,18.00
2022-11-04T17:40:17.303Z,50.40
2022-11-04T17:43:04.378Z,20.30
2022-11-04T17:45:36.034Z,23.20
2022-11-04T17:48:04.806Z,9.70
2022-11-04T17:50:33.519Z,33.80
2022-11-04T17:53:01.010Z,49.20
2022-11-04T17:55:28.576Z,69.60
2022-11-04T17:57:57.099Z,112.20
2022-11-04T18:00:29.373Z,42.80
2022-11-04T18:02:57.360Z,57.60
2022-11-04T18:05:24.983Z,52.50
2022-11-04T18:07:55.003Z,26.30
2022-11-04T18:10:22.469Z,9.30
2022-11-04T18:12:50.864Z,38.90
2022-11-04T18:15:18.911Z,26.40
2022-11-04T18:17:46.607Z,10.90
2022-11-04T18:20:15.759Z,9.00
2022-11-04T18:22:44.800Z,13.70
2022-11-04T18:25:12.835Z,7.00
2022-11-04T18:27:40.409Z,6.00
2022-11-04T18:30:08.419Z,7.40
2022-11-04T18:32:35.909Z,6.20
2022-11-04T18:35:03.615Z,6.70
2022-11-04T18:37:31.106Z,5.70
2022-11-04T18:39:58.628Z,5.60
2022-11-04T18:42:26.080Z,5.70
2022-11-04T18:44:53.632Z,6.60
2022-11-04T18:47:21.665Z,6.00
2022-11-04T18:49:49.537Z,6.50
2022-11-04T18:52:17.035Z,5.60
2022-11-04T18:54:44.585Z,6.50
2022-11-04T18:57:12.182Z,6.20
2022-11-04T18:59:39.730Z,5.20
2022-11-04T19:02:09.293Z,5.40
2022-11-04T19:04:36.900Z,5.80
2022-11-04T19:07:04.380Z,5.50
2022-11-04T19:09:47.999Z,5.80
2022-11-04T19:12:32.985Z,7.20
2022-11-04T19:15:00.651Z,6.50
2022-11-04T19:17:28.127Z,5.50
2022-11-04T19:19:55.635Z,6.10
2022-11-04T19:22:23.134Z,5.60
2022-11-04T19:24:50.717Z,5.60
2022-11-04T19:27:19.568Z,4.90
2022-11-04T19:29:47.060Z,5.60
2022-11-04T19:32:14.766Z,7.00
2022-11-04T19:34:43.330Z,5.70
2022-11-04T19:37:11.455Z,6.00
2022-11-04T19:39:39.977Z,10.20
2022-11-04T19:42:23.966Z,6.80
2022-11-04T19:44:51.532Z,5.50
2022-11-04T19:47:19.024Z,6.00
2022-11-04T19:49:46.565Z,5.80
2022-11-04T19:52:14.123Z,5.90
2022-11-04T19:54:41.564Z,5.20
2022-11-04T19:57:12.189Z,6.30
2022-11-04T19:59:39.632Z,5.70
2022-11-04T20:02:07.360Z,6.40
2022-11-04T20:04:35.135Z,5.80
2022-11-04T20:07:02.586Z,5.70
2022-11-04T20:09:30.099Z,6.00
2022-11-04T20:12:13.613Z,5.50
2022-11-04T20:14:41.067Z,5.40
2022-11-04T20:17:08.592Z,5.80
2022-11-04T20:19:36.046Z,5.50
2022-11-04T20:22:03.696Z,5.30
2022-11-04T20:24:31.166Z,5.70
2022-11-04T20:26:58.641Z,5.90
2022-11-04T20:29:26.135Z,4.80
2022-11-04T20:31:53.590Z,5.00
2022-11-04T20:34:21.072Z,6.10
2022-11-04T20:36:48.587Z,5.00
2022-11-04T20:39:18.668Z,5.60
2022-11-04T20:41:46.932Z,5.70
2022-11-04T20:44:15.402Z,5.70
2022-11-04T20:46:44.517Z,6.20
2022-11-04T20:49:12.865Z,6.10
2022-11-04T20:51:48.600Z,6.00
2022-11-04T20:54:17.894Z,6.30
2022-11-04T20:56:45.668Z,7.00
2022-11-04T20:59:13.897Z,6.40
2022-11-04T21:01:44.390Z,5.70
2022-11-04T21:04:20.663Z,5.60
2022-11-04T21:06:50.292Z,6.30
2022-11-04T21:09:20.386Z,5.50
2022-11-04T21:11:48.310Z,6.20
2022-11-04T21:14:19.367Z,5.60
2022-11-04T21:16:47.709Z,6.10
2022-11-04T21:19:16.276Z,5.50
2022-11-04T21:21:44.952Z,5.80
2022-11-04T21:24:15.031Z,5.50
2022-11-04T21:26:43.453Z,6.30
2022-11-04T21:29:17.183Z,6.20
2022-11-04T21:31:45.791Z,6.30
2022-11-04T21:34:13.949Z,6.60
2022-11-04T21:36:42.189Z,6.40
2022-11-04T21:39:11.000Z,7.00
2022-11-04T21:41:39.443Z,5.90
2022-11-04T21:44:10.038Z,5.90
2022-11-04T21:46:37.695Z,6.00
2022-11-04T21:49:05.515Z,6.20
2022-11-04T21:51:34.513Z,6.00
2022-11-04T21:54:05.888Z,7.10
2022-11-04T21:56:33.915Z,6.40
2022-11-04T21:59:01.810Z,6.40
2022-11-04T22:01:30.863Z,5.90
2022-11-04T22:04:00.699Z,5.50
2022-11-04T22:06:34.045Z,5.90
2022-11-04T22:09:08.872Z,7.60
2022-11-04T22:11:38.802Z,6.60
2022-11-04T22:14:08.665Z,6.80
2022-11-04T22:16:39.206Z,5.80
2022-11-04T22:19:10.260Z,6.20
2022-11-04T22:21:43.697Z,6.60
2022-11-04T22:24:14.065Z,6.60
2022-11-04T22:26:42.225Z,7.00
2022-11-04T22:29:10.811Z,6.50
2022-11-04T22:31:41.172Z,6.10
2022-11-04T22:34:09.660Z,6.30
2022-11-04T22:36:38.051Z,6.10
2022-11-04T22:39:05.602Z,6.00
2022-11-04T22:41:35.541Z,6.30
2022-11-04T22:44:03.571Z,6.10
2022-11-04T22:46:33.395Z,7.00
2022-11-04T22:49:00.926Z,6.40
2022-11-04T22:51:29.642Z,6.00
2022-11-04T22:54:02.899Z,6.60
2022-11-04T22:56:32.283Z,6.60
2022-11-04T22:59:00.778Z,6.30
2022-11-04T23:01:29.275Z,6.60
2022-11-04T23:03:57.660Z,6.40
2022-11-04T23:06:25.449Z,6.60
2022-11-04T23:08:59.540Z,6.20
2022-11-04T23:11:45.829Z,6.10
2022-11-04T23:14:32.845Z,6.20
2022-11-04T23:17:15.450Z,6.30
2022-11-04T23:19:43.417Z,6.00
2022-11-04T23:22:26.846Z,7.90
2022-11-04T23:25:12.329Z,6.60
2022-11-04T23:28:01.287Z,7.60
2022-11-04T23:30:32.909Z,6.30
2022-11-04T23:33:03.772Z,6.10
2022-11-04T23:35:50.522Z,6.40
2022-11-04T23:38:18.683Z,6.30
2022-11-04T23:41:07.937Z,5.80
2022-11-04T23:43:35.876Z,6.40
2022-11-04T23:46:19.974Z,6.40
2022-11-04T23:49:03.672Z,6.20
2022-11-04T23:51:47.232Z,5.70
2022-11-04T23:54:30.733Z,6.10
2022-11-04T23:57:14.197Z,6.50
2022-11-04T23:59:57.701Z,6.20
